Atkins, IA

1:17 PM CDT on May 06, 2015 (GMT -0500)
Vinton-Veterans Memorial | | Change Station
CLOSE
Current Station
Airport
Location: Vinton,
Elevation: 846 ft
Nearby Weather Stations

Elev 846 ft 42.22 °N, 92.03 °W | Updated 22 minutes ago

Clear
Clear
80 °F
Feels Like 80 °F
N
16
Wind Variable Wind from SSE
Gusts 29 mph

Today
High -- | Low -- °F
--% Chance of Precip.
Yesterday
High -- | Low -- °F
Precip. -- in
5:57 AM 8:11 PM
Waning Gibbous, 93% visible
Pressure 30.00 in
Visibility 10.0 miles
Clouds Clear
Dew Point 59 °F
Humidity 49%
Rainfall 0.00 in
Snow Depth Not available.
UV 11 out of 12
Pollen 10.70 out of 12
Air Quality Not available.
Flu Activity Local Activity
METAR KVTI 061755Z AUTO 15014G25KT 10SM CLR 27/15 A3000 RMK AO2 T02650150 10265 20143

More Conditions Fewer Conditions

Pressure 30.00 in
Visibility 10.0 miles
Clouds Clear
Dew Point 59 °F
Humidity 49%
Rainfall 0.00 in
Snow Depth Not available.
UV 11 out of 12
Pollen 10.70 out of 12
Air Quality Not available.
Flu Activity Local Activity
METAR KVTI 061755Z AUTO 15014G25KT 10SM CLR 27/15 A3000 RMK AO2 T02650150 10265 20143

More Conditions Fewer Conditions

10-Day Weather Forecast

Almanac

Astronomy

May. 06, 2015 Rise Set
Actual Time
Civil Twilight
Nautical Twilight
Astronomical Twilight
Moon
Length of Visible Light
Length of Day
Tomorrow will be .
, % of the Moon is Illuminated

Today's Extremes

State Highs State Lows

Community

WunderPhotos

Upload Photos

1,818,961 photos uploaded!

WunderBlogs® & News

Nearby

Air Quality

  Air Quality AQ Index Pollutant
Not available.

Snow Depth

Station Depth Elevation

Earthquake Activity

City Distance Mag. Time & Date
Minimum magnitude displayed is 2.5.

Coastal Water Temperatures

Place Temperature

Stations

Nearby Weather Stations

Station Location Temp. Windchill Dew Point Humidity Wind Precip. Elev Updated Type